Pagrindinis puslapis
METAR-TAF:

METAR-TAF

Oro uostai :

Šiaulių oro uostas

Šiauliai, Lietuva

platuma: 55-53-38N, ilguma: 023-23-42E, Aukštis: 135 m

Dabartinis oras

Ataskaita buvo paskelbta 26 minutes, ne 21:20 UTC
Vėjas 2 kt iš Vakarų/Šiaurės Vakarų
Temperatūra 2°C
Drėgmė 80%
Slėgis 1002 hPa
Matomumas 10 km arba daugiau
nėra debesų žemiau 1500 m ir nėra kamuolinių lietaus debesų

METAR: EYSA 152120Z 29002KT CAVOK 02/M01 Q1002 NOSIG

Laikas: 00:46 (21:46 UTC)

Prognozė

Ataskaita buvo paskelbta 1 valandą ir 33 minutes, ne 20:13 UTC
Prognozė galioja nuo 15 metu 21 UTC su 16 metu 06 UTC
Vėjas 5 kt nuo kintamojo kryptimis
Matomumas: 8000 m
Laikinai
nuo 15 metu 21 UTC su 15 metu 24 UTC
Matomumas: 5000 m
Išsisklaidę debesys ne aukštis 300 ft
Sekli rūkas, rūkana
Laikinai
nuo 16 metu 00 UTC su 16 metu 06 UTC
Matomumas: 3000 m
Išsisklaidę debesys ne aukštis 300 ft
Sekli rūkas, rūkana,

TAF: EYSA 152013Z 1521/1606 VRB05KT 8000 NSC TEMPO 1521/1524 5000 MIFG BR SCT003 TEMPO 1600/1606 3000 MIFG BR SCT003

Orai ataskaitas ir orų prognozės (METAR, TAF).

turimą stotys yra geltonos ir raudonos taškus žemėlapyje.

Perkelti pele per norėdami pamatyti stoties vardą.

Tada spustelėkite, norėdami matyti oro stebėjimo ir prognozės.

Norėdami pakeisti žemėlapį: spustelėkite ant žalios mygtukų su juodo kryžiaus žemyn,; žalią mygtuką su brūkšneliu, jei norite nutolinti; arba žalių rodyklių gretimoms žemėlapius.


METAR-TAF: